Time;durP1;ratioP1;P1;durP2;ratioP2;P2;SDS_P1;SDS_P2;PMS_P1;PMS_P2;Temp;Humidity;BMP_temperature;BMP_pressure;BME280_temperature;BME280_humidity;BME280_pressure;Samples;Min_cycle;Max_cycle;Signal;HPM_P1;HPM_P2
2023/03/07 00:01:44;;;;;;;13.90;5.85;;;;;;;;;;5055843;28;20060;-81
2023/03/07 00:07:06;;;;;;;16.52;7.72;;;;;;;;;;5040638;28;20050;-81
2023/03/07 00:09:35;;;;;;;15.90;6.93;;;;;;;;;;5039450;28;20034;-81
2023/03/07 00:12:03;;;;;;;18.70;6.97;;;;;;;;;;5038976;28;20060;-81
2023/03/07 00:14:41;;;;;;;15.85;7.18;;;;;;;;;;5037074;28;20065;-81
2023/03/07 00:17:08;;;;;;;20.95;8.00;;;;;;;;;;5039744;28;20025;-81
2023/03/07 00:19:43;;;;;;;16.90;7.35;;;;;;;;;;5022678;28;20056;-81
2023/03/07 00:22:10;;;;;;;17.45;8.18;;;;;;;;;;5055411;28;20535;-81
2023/03/07 00:24:42;;;;;;;14.98;7.35;;;;;;;;;;5022708;28;20041;-81
2023/03/07 00:27:10;;;;;;;18.38;7.47;;;;;;;;;;5038982;28;20045;-81
2023/03/07 00:30:04;;;;;;;19.58;7.82;;;;;;;;;;5050597;28;20174;-81
2023/03/07 00:32:36;;;;;;;21.67;8.13;;;;;;;;;;5052328;28;20037;-81
2023/03/07 00:35:05;;;;;;;18.88;7.95;;;;;;;;;;5039603;28;20038;-81
2023/03/07 00:37:38;;;;;;;21.48;8.32;;;;;;;;;;5053621;28;20086;-81
2023/03/07 00:40:08;;;;;;;17.55;8.50;;;;;;;;;;5027078;28;20080;-81
2023/03/07 00:42:36;;;;;;;20.05;8.73;;;;;;;;;;5052749;28;20045;-80
2023/03/07 00:45:12;;;;;;;22.88;9.43;;;;;;;;;;5053672;28;20029;-81
2023/03/07 00:47:40;;;;;;;20.15;8.40;;;;;;;;;;5036800;28;20095;-81
2023/03/07 00:50:09;;;;;;;24.20;9.27;;;;;;;;;;5048313;28;20045;-81
2023/03/07 00:52:39;;;;;;;22.45;9.10;;;;;;;;;;5024744;28;20045;-81
2023/03/07 00:55:08;;;;;;;22.80;9.98;;;;;;;;;;5039921;28;20069;-81
2023/03/07 00:57:36;;;;;;;25.05;10.27;;;;;;;;;;5037884;28;20038;-81
2023/03/07 01:00:09;;;;;;;23.98;10.18;;;;;;;;;;5041061;28;20507;-80
2023/03/07 01:02:36;;;;;;;25.83;9.68;;;;;;;;;;5050431;28;20427;-81
2023/03/07 01:05:05;;;;;;;29.10;10.85;;;;;;;;;;5020572;28;20061;-81
2023/03/07 01:07:33;;;;;;;24.50;9.48;;;;;;;;;;5036054;28;20116;-81
2023/03/07 01:10:07;;;;;;;28.23;11.82;;;;;;;;;;5052099;28;20041;-81
2023/03/07 01:12:34;;;;;;;27.65;12.13;;;;;;;;;;5019030;28;20457;-81
2023/03/07 01:15:04;;;;;;;26.13;10.23;;;;;;;;;;5019314;28;20034;-81
2023/03/07 01:17:33;;;;;;;29.08;11.02;;;;;;;;;;5051922;28;20052;-81
2023/03/07 01:20:02;;;;;;;23.90;10.77;;;;;;;;;;5022011;28;20133;-81
2023/03/07 01:22:34;;;;;;;23.80;10.38;;;;;;;;;;5035366;28;20048;-81
2023/03/07 01:25:02;;;;;;;26.60;11.13;;;;;;;;;;5020498;28;20033;-81
2023/03/07 01:27:30;;;;;;;30.73;11.20;;;;;;;;;;5019667;28;20442;-80
2023/03/07 01:30:00;;;;;;;26.05;11.40;;;;;;;;;;5037257;28;20068;-81
2023/03/07 01:32:31;;;;;;;27.60;10.77;;;;;;;;;;5033607;28;20073;-81
2023/03/07 01:35:05;;;;;;;30.08;10.75;;;;;;;;;;5035625;28;20043;-81
2023/03/07 01:37:32;;;;;;;24.90;10.45;;;;;;;;;;5038634;28;20036;-81
2023/03/07 01:40:07;;;;;;;30.13;12.68;;;;;;;;;;5040278;28;20123;-81
2023/03/07 01:42:40;;;;;;;31.67;11.13;;;;;;;;;;5040788;28;20038;-81
2023/03/07 01:45:11;;;;;;;28.88;11.73;;;;;;;;;;5046516;28;20585;-81
2023/03/07 01:47:45;;;;;;;33.05;13.48;;;;;;;;;;5005781;28;20030;-81
2023/03/07 01:50:39;;;;;;;25.55;11.10;;;;;;;;;;5050420;28;20041;-81
2023/03/07 01:53:07;;;;;;;29.15;11.85;;;;;;;;;;5039818;28;20090;-81
2023/03/07 01:55:36;;;;;;;27.42;12.00;;;;;;;;;;5021938;28;20045;-81
2023/03/07 01:58:14;;;;;;;27.45;12.68;;;;;;;;;;5036481;28;20440;-81
2023/03/07 02:00:43;;;;;;;32.10;12.75;;;;;;;;;;5014414;28;20049;-81
2023/03/07 02:03:43;;;;;;;26.52;12.35;;;;;;;;;;5041545;28;20041;-81
2023/03/07 02:06:17;;;;;;;27.80;12.60;;;;;;;;;;5041329;28;20046;-81
2023/03/07 02:08:48;;;;;;;28.65;11.40;;;;;;;;;;5037404;28;20562;-81
2023/03/07 02:11:16;;;;;;;26.40;11.45;;;;;;;;;;5037387;28;20052;-81
2023/03/07 02:14:08;;;;;;;24.30;11.05;;;;;;;;;;5040594;28;20499;-81
2023/03/07 02:16:37;;;;;;;24.60;11.32;;;;;;;;;;5023352;28;20040;-81
2023/03/07 02:19:34;;;;;;;22.50;10.48;;;;;;;;;;5023174;28;20496;-80
2023/03/07 02:22:16;;;;;;;27.55;12.25;;;;;;;;;;5053003;28;20049;-81
2023/03/07 02:24:49;;;;;;;26.08;12.65;;;;;;;;;;5040677;28;20030;-81
2023/03/07 02:27:16;;;;;;;28.52;12.20;;;;;;;;;;5019870;28;20087;-81
2023/03/07 02:29:48;;;;;;;29.70;12.60;;;;;;;;;;5041886;28;20044;-81
2023/03/07 02:32:26;;;;;;;27.63;12.77;;;;;;;;;;5039298;28;20037;-81
2023/03/07 02:34:54;;;;;;;27.58;11.77;;;;;;;;;;5008953;28;20052;-81
2023/03/07 02:37:33;;;;;;;25.80;11.73;;;;;;;;;;5022866;28;20107;-81
2023/03/07 02:40:07;;;;;;;26.55;11.43;;;;;;;;;;5024505;28;20060;-81
2023/03/07 02:42:37;;;;;;;24.35;11.15;;;;;;;;;;5022778;28;20944;-81
2023/03/07 02:45:17;;;;;;;22.90;10.70;;;;;;;;;;5050951;28;20542;-81
2023/03/07 02:48:08;;;;;;;21.17;9.30;;;;;;;;;;5052359;28;20108;-81
2023/03/07 02:51:00;;;;;;;22.40;11.02;;;;;;;;;;5039986;28;20049;-81
2023/03/07 02:53:28;;;;;;;26.27;10.85;;;;;;;;;;5029901;28;20043;-81
2023/03/07 02:56:00;;;;;;;22.67;9.50;;;;;;;;;;5053499;28;20574;-81
2023/03/07 02:58:33;;;;;;;23.98;9.57;;;;;;;;;;5054582;28;20037;-81
2023/03/07 03:01:00;;;;;;;21.05;9.80;;;;;;;;;;5037037;28;20060;-81
2023/03/07 03:03:28;;;;;;;20.63;10.23;;;;;;;;;;5037959;28;20490;-81
2023/03/07 03:06:00;;;;;;;20.95;9.73;;;;;;;;;;5022600;28;20045;-81
2023/03/07 03:08:28;;;;;;;26.23;11.27;;;;;;;;;;5038806;28;20034;-81
2023/03/07 03:10:56;;;;;;;23.15;10.35;;;;;;;;;;5052276;28;20091;-81
2023/03/07 03:13:26;;;;;;;23.35;10.63;;;;;;;;;;5022340;28;20045;-81
2023/03/07 03:15:58;;;;;;;27.80;10.35;;;;;;;;;;5051553;28;20119;-81
2023/03/07 03:18:27;;;;;;;26.80;10.15;;;;;;;;;;5019779;28;20145;-81
2023/03/07 03:20:54;;;;;;;22.00;10.07;;;;;;;;;;5041139;28;20068;-81
2023/03/07 03:23:30;;;;;;;22.80;10.85;;;;;;;;;;5022852;28;20034;-81
2023/03/07 03:26:00;;;;;;;22.92;10.50;;;;;;;;;;5051794;28;20041;-81
2023/03/07 03:28:34;;;;;;;23.38;10.15;;;;;;;;;;5054337;28;20059;-81
2023/03/07 03:31:09;;;;;;;19.40;8.43;;;;;;;;;;5053669;28;20446;-81
2023/03/07 03:33:38;;;;;;;22.42;9.80;;;;;;;;;;5053269;28;20045;-81
2023/03/07 03:36:09;;;;;;;20.90;9.90;;;;;;;;;;5031800;28;20103;-81
2023/03/07 03:39:09;;;;;;;27.30;9.85;;;;;;;;;;5040483;28;20558;-81
2023/03/07 03:41:42;;;;;;;24.88;9.88;;;;;;;;;;5023129;28;20061;-81
2023/03/07 03:44:10;;;;;;;19.55;9.25;;;;;;;;;;5021792;28;20063;-81
2023/03/07 03:46:38;;;;;;;22.00;10.23;;;;;;;;;;5026964;28;20052;-81
2023/03/07 03:49:06;;;;;;;22.33;9.40;;;;;;;;;;5051480;28;20064;-81
2023/03/07 03:51:34;;;;;;;28.67;10.05;;;;;;;;;;5011877;28;20453;-81
2023/03/07 03:54:07;;;;;;;22.85;10.20;;;;;;;;;;5051618;28;20056;-81
2023/03/07 03:56:36;;;;;;;24.02;10.52;;;;;;;;;;5037556;28;20034;-81
2023/03/07 03:59:04;;;;;;;22.83;9.93;;;;;;;;;;5036466;28;20064;-81
2023/03/07 04:01:32;;;;;;;21.00;8.80;;;;;;;;;;5036777;28;20055;-81
2023/03/07 04:04:01;;;;;;;20.42;8.95;;;;;;;;;;5020928;28;20415;-81
2023/03/07 04:06:32;;;;;;;21.20;9.32;;;;;;;;;;5022785;28;20164;-81
2023/03/07 04:09:24;;;;;;;24.05;9.77;;;;;;;;;;5051246;28;20402;-81
2023/03/07 04:11:52;;;;;;;19.77;8.50;;;;;;;;;;5052641;28;20111;-81
2023/03/07 04:14:20;;;;;;;20.13;9.73;;;;;;;;;;5020166;28;20041;-81
2023/03/07 04:16:52;;;;;;;20.02;8.80;;;;;;;;;;5006953;28;21797;-81
2023/03/07 04:19:20;;;;;;;20.20;8.85;;;;;;;;;;5035021;28;20047;-81
2023/03/07 04:21:48;;;;;;;20.40;8.60;;;;;;;;;;5020854;28;20061;-81
2023/03/07 04:24:16;;;;;;;18.35;8.00;;;;;;;;;;5035332;28;20052;-81
2023/03/07 04:26:44;;;;;;;17.17;7.22;;;;;;;;;;5020324;28;20565;-81
2023/03/07 04:29:16;;;;;;;17.20;7.68;;;;;;;;;;5051643;28;20041;-81
2023/03/07 04:31:50;;;;;;;17.40;7.32;;;;;;;;;;5019772;28;20131;-81
2023/03/07 04:34:22;;;;;;;18.10;7.97;;;;;;;;;;5028174;28;20128;-81
2023/03/07 04:36:50;;;;;;;15.63;7.30;;;;;;;;;;5038072;28;20128;-81
2023/03/07 04:39:22;;;;;;;14.73;6.63;;;;;;;;;;5044425;28;20072;-81
2023/03/07 04:41:50;;;;;;;13.95;6.65;;;;;;;;;;5021169;28;20052;-81
2023/03/07 04:44:20;;;;;;;15.05;5.90;;;;;;;;;;5031805;28;20046;-81
2023/03/07 04:46:48;;;;;;;17.58;5.88;;;;;;;;;;5021368;28;20040;-81
2023/03/07 04:49:16;;;;;;;19.00;5.22;;;;;;;;;;5019837;28;20041;-81
2023/03/07 04:52:08;;;;;;;8.13;4.22;;;;;;;;;;5052510;28;20162;-81
2023/03/07 04:54:40;;;;;;;11.27;4.32;;;;;;;;;;5020849;28;20087;-81
2023/03/07 04:57:08;;;;;;;12.30;5.20;;;;;;;;;;5019629;28;20430;-81
2023/03/07 04:59:38;;;;;;;13.52;4.68;;;;;;;;;;5051780;28;20037;-81
2023/03/07 05:02:10;;;;;;;14.18;4.35;;;;;;;;;;5036551;28;20561;-81
2023/03/07 05:04:38;;;;;;;11.90;3.63;;;;;;;;;;5036516;28;20032;-81
2023/03/07 05:07:10;;;;;;;10.27;3.92;;;;;;;;;;5053591;28;20037;-81
2023/03/07 05:09:38;;;;;;;11.45;3.67;;;;;;;;;;5037372;28;20147;-81
2023/03/07 05:12:06;;;;;;;8.65;3.63;;;;;;;;;;5022206;28;20060;-81
2023/03/07 05:14:34;;;;;;;7.93;3.05;;;;;;;;;;5036096;28;20140;-81
2023/03/07 05:17:06;;;;;;;9.38;3.17;;;;;;;;;;5037031;28;20153;-81
2023/03/07 05:19:34;;;;;;;8.77;2.60;;;;;;;;;;5024812;28;20087;-81
2023/03/07 05:22:03;;;;;;;12.02;3.08;;;;;;;;;;5024007;28;20049;-81
2023/03/07 05:24:30;;;;;;;6.82;2.08;;;;;;;;;;5023370;28;20036;-81
2023/03/07 05:26:58;;;;;;;8.52;2.05;;;;;;;;;;5023773;28;20107;-81
2023/03/07 05:29:27;;;;;;;5.82;1.88;;;;;;;;;;5022505;28;20075;-81
2023/03/07 05:32:01;;;;;;;10.30;2.10;;;;;;;;;;5023325;28;20033;-81
2023/03/07 05:34:28;;;;;;;10.88;2.17;;;;;;;;;;5038837;28;20048;-81
2023/03/07 05:36:57;;;;;;;4.55;1.95;;;;;;;;;;5024432;28;20091;-81
2023/03/07 05:39:58;;;;;;;5.82;1.60;;;;;;;;;;5037301;28;20041;-81
2023/03/07 05:42:38;;;;;;;4.88;1.77;;;;;;;;;;5053057;28;20128;-81
2023/03/07 05:45:07;;;;;;;8.57;2.10;;;;;;;;;;5038914;28;20048;-81
2023/03/07 05:47:34;;;;;;;3.45;1.40;;;;;;;;;;5023274;28;20036;-81
2023/03/07 05:50:26;;;;;;;2.97;1.42;;;;;;;;;;5042754;28;20037;-81
2023/03/07 05:52:58;;;;;;;5.07;1.40;;;;;;;;;;5039363;28;20103;-81
2023/03/07 05:55:28;;;;;;;4.05;1.17;;;;;;;;;;5023413;28;20491;-81
2023/03/07 05:58:20;;;;;;;4.00;1.50;;;;;;;;;;5058242;28;20025;-81
2023/03/07 06:00:48;;;;;;;7.32;1.50;;;;;;;;;;5030282;28;20048;-81
2023/03/07 06:03:16;;;;;;;10.13;1.67;;;;;;;;;;5057472;28;20118;-81
2023/03/07 06:08:40;;;;;;;4.20;1.35;;;;;;;;;;5039257;28;20063;-81
2023/03/07 06:11:37;;;;;;;4.72;1.02;;;;;;;;;;5056175;28;20041;-81
2023/03/07 06:14:04;;;;;;;3.50;1.02;;;;;;;;;;5041083;28;20045;-81
2023/03/07 06:16:56;;;;;;;5.95;1.27;;;;;;;;;;5054414;28;20041;-81
2023/03/07 06:19:30;;;;;;;7.70;0.98;;;;;;;;;;5040370;28;20059;-81
2023/03/07 06:22:24;;;;;;;6.82;1.05;;;;;;;;;;5042979;28;20079;-81
2023/03/07 06:24:58;;;;;;;5.13;1.40;;;;;;;;;;5024231;28;20049;-80
2023/03/07 06:27:26;;;;;;;4.65;0.98;;;;;;;;;;5040441;28;20604;-80
2023/03/07 06:29:54;;;;;;;2.30;0.90;;;;;;;;;;5024184;28;20041;-81
2023/03/07 06:32:22;;;;;;;5.13;0.98;;;;;;;;;;5027869;28;20048;-80
2023/03/07 06:35:20;;;;;;;3.67;1.33;;;;;;;;;;5055903;28;20179;-80
2023/03/07 06:37:50;;;;;;;5.05;1.67;;;;;;;;;;5028125;28;20060;-80
2023/03/07 06:40:18;;;;;;;7.38;1.40;;;;;;;;;;5059163;28;20036;-80
2023/03/07 06:43:11;;;;;;;3.15;0.82;;;;;;;;;;5057773;28;20171;-81
2023/03/07 06:45:38;;;;;;;7.55;1.45;;;;;;;;;;5010724;28;20049;-81
2023/03/07 06:48:06;;;;;;;4.35;0.88;;;;;;;;;;5025597;28;20045;-80
2023/03/07 06:50:40;;;;;;;4.97;0.80;;;;;;;;;;5026806;28;20587;-81
2023/03/07 06:53:08;;;;;;;6.72;1.30;;;;;;;;;;5042553;28;20167;-81
2023/03/07 06:55:36;;;;;;;3.58;0.90;;;;;;;;;;5023504;28;20041;-81
2023/03/07 06:58:04;;;;;;;5.35;0.95;;;;;;;;;;5025479;28;20041;-81
2023/03/07 07:00:32;;;;;;;10.13;1.42;;;;;;;;;;5023044;28;20679;-80
2023/03/07 07:03:04;;;;;;;4.18;0.90;;;;;;;;;;5064149;28;20160;-80
2023/03/07 07:05:56;;;;;;;3.95;1.30;;;;;;;;;;5061763;28;20037;-80
2023/03/07 07:08:30;;;;;;;4.15;0.82;;;;;;;;;;5026970;28;20033;-80
2023/03/07 07:10:58;;;;;;;2.70;0.90;;;;;;;;;;5043938;28;20099;-80
2023/03/07 07:13:28;;;;;;;6.78;1.10;;;;;;;;;;5025360;28;20033;-80
2023/03/07 07:15:57;;;;;;;7.25;1.65;;;;;;;;;;5041622;28;20041;-81
2023/03/07 07:18:31;;;;;;;3.88;1.30;;;;;;;;;;5057955;28;20068;-80
2023/03/07 07:20:58;;;;;;;4.32;1.38;;;;;;;;;;5042632;28;20052;-80
2023/03/07 07:23:50;;;;;;;2.35;0.93;;;;;;;;;;5058901;28;20033;-80
2023/03/07 07:26:18;;;;;;;9.38;1.42;;;;;;;;;;5025916;28;20105;-80
2023/03/07 07:28:46;;;;;;;5.45;0.80;;;;;;;;;;5028146;28;20045;-81
2023/03/07 07:31:14;;;;;;;3.80;1.02;;;;;;;;;;5051230;28;20301;-81
2023/03/07 07:33:42;;;;;;;3.60;0.77;;;;;;;;;;5018231;28;20128;-80
2023/03/07 07:36:10;;;;;;;2.53;0.65;;;;;;;;;;5024404;28;20051;-80
2023/03/07 07:38:38;;;;;;;10.50;1.27;;;;;;;;;;5041734;28;20607;-81
2023/03/07 07:41:06;;;;;;;7.00;0.95;;;;;;;;;;5058043;28;20045;-80
2023/03/07 07:43:34;;;;;;;5.55;0.90;;;;;;;;;;5022397;28;20052;-81
2023/03/07 07:46:20;;;;;;;3.38;1.00;;;;;;;;;;5048095;28;20044;-80
2023/03/07 07:48:48;;;;;;;6.10;0.90;;;;;;;;;;5019657;28;20214;-81
2023/03/07 07:51:16;;;;;;;4.15;0.90;;;;;;;;;;5031622;28;20041;-80
2023/03/07 07:53:44;;;;;;;7.22;0.98;;;;;;;;;;5022622;28;20040;-80
2023/03/07 07:56:12;;;;;;;8.73;1.30;;;;;;;;;;5035475;28;20679;-81
2023/03/07 07:58:40;;;;;;;8.57;1.08;;;;;;;;;;5019800;28;20037;-80
2023/03/07 08:01:32;;;;;;;8.35;1.10;;;;;;;;;;5041760;28;20664;-80
2023/03/07 08:04:00;;;;;;;6.88;0.90;;;;;;;;;;5051014;28;20091;-80
2023/03/07 08:06:29;;;;;;;5.05;1.65;;;;;;;;;;5033261;28;20048;-80
2023/03/07 08:08:56;;;;;;;3.40;0.68;;;;;;;;;;5022784;28;20079;-80
2023/03/07 08:11:28;;;;;;;5.38;0.85;;;;;;;;;;5017808;28;20095;-80
2023/03/07 08:13:56;;;;;;;4.93;0.95;;;;;;;;;;5040126;28;20053;-80
2023/03/07 08:16:24;;;;;;;4.13;0.93;;;;;;;;;;5036856;28;20038;-80
2023/03/07 08:18:57;;;;;;;6.40;0.90;;;;;;;;;;5036740;28;20072;-80
2023/03/07 08:21:25;;;;;;;5.72;0.90;;;;;;;;;;5035608;28;20045;-80
2023/03/07 08:23:53;;;;;;;2.80;0.70;;;;;;;;;;5036384;28;20049;-80
2023/03/07 08:26:26;;;;;;;6.95;1.05;;;;;;;;;;5030079;28;20141;-80
2023/03/07 08:28:54;;;;;;;7.47;0.85;;;;;;;;;;5017176;28;20527;-80
2023/03/07 08:31:23;;;;;;;3.50;0.85;;;;;;;;;;5031418;28;20045;-80
2023/03/07 08:33:51;;;;;;;2.72;1.13;;;;;;;;;;5048055;28;20053;-80
2023/03/07 08:36:18;;;;;;;6.40;1.08;;;;;;;;;;5033008;28;20612;-80
2023/03/07 08:38:51;;;;;;;5.43;1.65;;;;;;;;;;5034795;28;20033;-81
2023/03/07 08:41:20;;;;;;;9.13;1.25;;;;;;;;;;5037061;28;20045;-81
2023/03/07 08:43:48;;;;;;;3.70;1.20;;;;;;;;;;5020794;28;20048;-80
2023/03/07 08:46:22;;;;;;;4.65;1.27;;;;;;;;;;5034422;28;20029;-80
2023/03/07 08:48:50;;;;;;;5.20;1.20;;;;;;;;;;5034112;28;20034;-80
2023/03/07 08:51:18;;;;;;;5.10;1.33;;;;;;;;;;5035040;28;21966;-80
2023/03/07 08:53:46;;;;;;;7.55;1.08;;;;;;;;;;5032371;28;20040;-80
2023/03/07 08:56:17;;;;;;;6.00;1.00;;;;;;;;;;5034155;28;20152;-80
2023/03/07 08:58:45;;;;;;;9.23;1.30;;;;;;;;;;5033923;28;20029;-81
2023/03/07 09:01:12;;;;;;;2.85;1.05;;;;;;;;;;5032374;28;20128;-80
2023/03/07 09:03:41;;;;;;;4.55;0.90;;;;;;;;;;5035046;28;20490;-80
2023/03/07 09:06:14;;;;;;;6.65;1.05;;;;;;;;;;5048698;28;20045;-80
2023/03/07 09:08:42;;;;;;;5.43;1.10;;;;;;;;;;5033746;28;20052;-81
2023/03/07 09:11:10;;;;;;;9.68;1.33;;;;;;;;;;5037590;28;20049;-80
2023/03/07 09:14:02;;;;;;;4.97;1.02;;;;;;;;;;5050379;28;20045;-80
2023/03/07 09:16:54;;;;;;;5.78;1.20;;;;;;;;;;5045781;28;20041;-80
2023/03/07 09:19:22;;;;;;;9.43;0.93;;;;;;;;;;5008848;28;20100;-80
2023/03/07 09:22:16;;;;;;;10.07;0.85;;;;;;;;;;5025995;28;20060;-80
2023/03/07 09:24:48;;;;;;;9.57;1.42;;;;;;;;;;5051477;28;20103;-80
2023/03/07 09:27:16;;;;;;;8.27;1.30;;;;;;;;;;5036969;28;20419;-80
2023/03/07 09:29:46;;;;;;;5.38;1.08;;;;;;;;;;5038673;28;20060;-80
2023/03/07 09:32:14;;;;;;;3.97;1.02;;;;;;;;;;5032461;28;20041;-80
2023/03/07 09:34:42;;;;;;;4.78;0.90;;;;;;;;;;5016951;28;20040;-80
2023/03/07 09:37:34;;;;;;;10.88;1.35;;;;;;;;;;5047564;28;20037;-80
2023/03/07 09:40:06;;;;;;;7.15;1.45;;;;;;;;;;5032994;28;20033;-80
2023/03/07 09:42:54;;;;;;;4.93;0.77;;;;;;;;;;5040017;28;20040;-81
2023/03/07 09:45:52;;;;;;;13.05;1.70;;;;;;;;;;5047597;28;20136;-81
2023/03/07 09:48:43;;;;;;;7.43;1.10;;;;;;;;;;5035612;28;20034;-80
2023/03/07 09:51:24;;;;;;;3.88;1.23;;;;;;;;;;5018513;28;20095;-81
2023/03/07 09:53:56;;;;;;;6.05;1.20;;;;;;;;;;5031215;28;20053;-80
2023/03/07 09:56:56;;;;;;;6.30;1.48;;;;;;;;;;5017963;28;20049;-81
2023/03/07 09:59:30;;;;;;;4.20;1.20;;;;;;;;;;5017020;28;20458;-81
2023/03/07 10:02:20;;;;;;;4.03;0.95;;;;;;;;;;5021473;28;20517;-80
2023/03/07 10:04:54;;;;;;;8.75;1.13;;;;;;;;;;5040738;28;20133;-81
2023/03/07 10:07:24;;;;;;;5.80;1.33;;;;;;;;;;5041767;28;20487;-81
2023/03/07 10:10:01;;;;;;;6.80;1.27;;;;;;;;;;5025074;28;20035;-81
2023/03/07 10:13:21;;;;;;;7.65;1.00;;;;;;;;;;5039560;28;20061;-80
2023/03/07 10:16:25;;;;;;;7.95;1.02;;;;;;;;;;4943052;28;20047;-81
2023/03/07 10:19:34;;;;;;;7.93;1.30;;;;;;;;;;4942959;28;20145;-80
2023/03/07 10:22:26;;;;;;;1.98;0.60;;;;;;;;;;4961661;28;20046;-81
2023/03/07 10:25:15;;;;;;;1.73;0.80;;;;;;;;;;4947019;28;20051;-81
2023/03/07 10:27:45;;;;;;;7.85;1.20;;;;;;;;;;4943644;28;21451;-80
2023/03/07 10:30:38;;;;;;;1.58;0.60;;;;;;;;;;4961082;28;20043;-80
2023/03/07 10:33:17;;;;;;;5.40;0.98;;;;;;;;;;4960892;28;20587;-81
2023/03/07 10:36:18;;;;;;;6.00;0.77;;;;;;;;;;4946798;28;20046;-81
2023/03/07 10:39:01;;;;;;;3.00;0.88;;;;;;;;;;4943296;28;20051;-81
2023/03/07 10:41:29;;;;;;;3.15;0.75;;;;;;;;;;4929307;28;20142;-81
2023/03/07 10:43:56;;;;;;;2.22;0.63;;;;;;;;;;4945609;28;20062;-81
2023/03/07 10:46:56;;;;;;;4.18;0.90;;;;;;;;;;4962452;28;20050;-80
2023/03/07 10:49:35;;;;;;;3.05;0.73;;;;;;;;;;4945619;28;20039;-80
2023/03/07 10:52:30;;;;;;;5.55;0.80;;;;;;;;;;5045067;28;20056;-81
2023/03/07 10:55:36;;;;;;;3.17;0.63;;;;;;;;;;5033648;28;20045;-80
2023/03/07 10:58:29;;;;;;;2.13;0.70;;;;;;;;;;5041516;28;20041;-81
2023/03/07 11:00:58;;;;;;;5.72;0.82;;;;;;;;;;5054064;28;20090;-81
2023/03/07 11:03:42;;;;;;;15.13;0.93;;;;;;;;;;5034393;28;20029;-81
2023/03/07 11:06:53;;;;;;;7.65;1.30;;;;;;;;;;5056034;28;20064;-81
2023/03/07 11:09:47;;;;;;;6.65;0.70;;;;;;;;;;5039788;28;20074;-81
2023/03/07 11:12:22;;;;;;;5.13;0.57;;;;;;;;;;5037298;28;20033;-81
2023/03/07 11:15:16;;;;;;;6.80;1.23;;;;;;;;;;5054203;28;20569;-81
2023/03/07 11:17:50;;;;;;;1.95;0.65;;;;;;;;;;5056207;28;20306;-81
2023/03/07 11:20:46;;;;;;;7.03;1.25;;;;;;;;;;5023604;28;20429;-81
2023/03/07 11:23:58;;;;;;;12.25;1.08;;;;;;;;;;5039577;28;20037;-81
2023/03/07 11:26:31;;;;;;;8.90;1.13;;;;;;;;;;5037979;28;20044;-81
2023/03/07 11:29:18;;;;;;;3.15;0.57;;;;;;;;;;5029010;28;20041;-81
2023/03/07 11:31:58;;;;;;;7.00;1.52;;;;;;;;;;5051593;28;20049;-81
2023/03/07 11:34:32;;;;;;;8.02;1.42;;;;;;;;;;5035506;28;20067;-81
2023/03/07 11:37:27;;;;;;;6.63;1.13;;;;;;;;;;5028723;28;20037;-81
2023/03/07 11:40:26;;;;;;;7.03;1.02;;;;;;;;;;5022499;28;20045;-81
2023/03/07 11:43:35;;;;;;;9.52;0.82;;;;;;;;;;5038414;28;20452;-81
2023/03/07 11:46:15;;;;;;;5.43;0.73;;;;;;;;;;5035869;28;20467;-81
2023/03/07 11:48:54;;;;;;;2.35;0.52;;;;;;;;;;5033085;28;20033;-81
2023/03/07 11:51:25;;;;;;;3.47;0.88;;;;;;;;;;5037479;28;20654;-81
2023/03/07 11:54:37;;;;;;;3.45;1.13;;;;;;;;;;5020237;28;20132;-81
2023/03/07 11:57:36;;;;;;;3.50;0.75;;;;;;;;;;5040078;28;20044;-81
2023/03/07 12:00:20;;;;;;;6.53;0.70;;;;;;;;;;5020814;28;20122;-81
2023/03/07 12:03:25;;;;;;;3.22;0.73;;;;;;;;;;5032076;28;20051;-81
2023/03/07 12:06:27;;;;;;;4.90;0.90;;;;;;;;;;5051862;28;20439;-81
2023/03/07 12:09:19;;;;;;;6.35;1.15;;;;;;;;;;4963230;28;20065;-81
2023/03/07 12:12:15;;;;;;;2.63;0.55;;;;;;;;;;4983331;28;20647;-81
2023/03/07 12:15:06;;;;;;;4.90;1.23;;;;;;;;;;4982828;28;20042;-81
2023/03/07 12:18:06;;;;;;;6.50;1.20;;;;;;;;;;4980326;28;20049;-81
2023/03/07 12:21:02;;;;;;;4.28;0.80;;;;;;;;;;4985852;28;20054;-81
2023/03/07 12:23:43;;;;;;;6.05;1.02;;;;;;;;;;4953355;28;20445;-81
2023/03/07 12:26:17;;;;;;;6.63;0.75;;;;;;;;;;4967646;28;20198;-81
2023/03/07 12:28:50;;;;;;;10.80;1.10;;;;;;;;;;4977301;28;20038;-81
2023/03/07 12:31:50;;;;;;;2.17;0.98;;;;;;;;;;4970352;28;20053;-81
2023/03/07 12:34:46;;;;;;;2.83;0.28;;;;;;;;;;4985866;28;20149;-81
2023/03/07 12:37:23;;;;;;;6.45;0.90;;;;;;;;;;4987473;28;20043;-81
2023/03/07 12:40:03;;;;;;;5.53;0.90;;;;;;;;;;4987824;28;20054;-81
2023/03/07 12:43:14;;;;;;;3.92;0.85;;;;;;;;;;4986565;28;20141;-81
2023/03/07 12:45:51;;;;;;;7.75;0.82;;;;;;;;;;5008051;28;20061;-81
2023/03/07 12:48:32;;;;;;;3.95;0.93;;;;;;;;;;5039946;28;20450;-81
2023/03/07 12:51:32;;;;;;;1.60;0.55;;;;;;;;;;5043620;28;20128;-81
2023/03/07 12:54:26;;;;;;;4.53;0.63;;;;;;;;;;5035740;28;20487;-82
2023/03/07 12:57:08;;;;;;;6.50;1.00;;;;;;;;;;5020205;28;20037;-81
2023/03/07 12:59:41;;;;;;;3.20;0.65;;;;;;;;;;5040388;28;20138;-81
2023/03/07 13:02:26;;;;;;;4.57;0.68;;;;;;;;;;5035599;28;20467;-81
2023/03/07 13:04:56;;;;;;;5.65;0.82;;;;;;;;;;5052776;28;20037;-81
2023/03/07 13:07:52;;;;;;;3.00;0.77;;;;;;;;;;5038544;28;20128;-81
2023/03/07 13:10:23;;;;;;;2.25;0.80;;;;;;;;;;5054003;28;20099;-81
2023/03/07 13:12:51;;;;;;;7.07;0.93;;;;;;;;;;5020162;28;20048;-81
2023/03/07 13:15:19;;;;;;;2.85;0.65;;;;;;;;;;5036252;28;20127;-80
2023/03/07 13:17:46;;;;;;;4.65;0.60;;;;;;;;;;5021447;28;20052;-81
2023/03/07 13:20:14;;;;;;;10.55;1.13;;;;;;;;;;5056822;28;20041;-81
2023/03/07 13:22:42;;;;;;;4.93;1.25;;;;;;;;;;5032631;28;20033;-81
2023/03/07 13:25:34;;;;;;;5.10;0.98;;;;;;;;;;5036767;28;20123;-81
2023/03/07 13:28:05;;;;;;;3.33;0.60;;;;;;;;;;5037741;28;20136;-81
2023/03/07 13:30:33;;;;;;;3.58;0.75;;;;;;;;;;5035226;28;20494;-81
2023/03/07 13:33:25;;;;;;;2.10;0.60;;;;;;;;;;5023951;28;20132;-81
2023/03/07 13:35:59;;;;;;;2.95;0.60;;;;;;;;;;5057789;28;20053;-81
2023/03/07 13:38:47;;;;;;;2.00;0.88;;;;;;;;;;5039392;28;20033;-81
2023/03/07 13:41:47;;;;;;;3.15;0.35;;;;;;;;;;5038776;28;20037;-81
2023/03/07 13:44:37;;;;;;;7.20;1.00;;;;;;;;;;5014440;28;20051;-81
2023/03/07 13:47:43;;;;;;;3.22;0.45;;;;;;;;;;5030223;28;20041;-81
2023/03/07 13:50:32;;;;;;;5.38;0.80;;;;;;;;;;5030270;28;20037;-80
2023/03/07 13:53:34;;;;;;;3.60;0.77;;;;;;;;;;5041362;28;20083;-81
2023/03/07 13:56:15;;;;;;;2.40;0.50;;;;;;;;;;5037421;28;20033;-81
2023/03/07 13:58:46;;;;;;;7.03;0.80;;;;;;;;;;5039294;28;20078;-81
2023/03/07 14:01:41;;;;;;;6.03;1.00;;;;;;;;;;5036173;28;20048;-81
2023/03/07 14:04:20;;;;;;;1.38;0.50;;;;;;;;;;5039196;28;20123;-81
2023/03/07 14:07:11;;;;;;;5.75;0.93;;;;;;;;;;5054397;28;20037;-81
2023/03/07 14:09:52;;;;;;;2.30;0.50;;;;;;;;;;5040779;28;20514;-81
2023/03/07 14:12:50;;;;;;;1.00;0.50;;;;;;;;;;5041357;28;20573;-81
2023/03/07 14:15:36;;;;;;;1.92;0.70;;;;;;;;;;5054749;28;20072;-81
2023/03/07 14:18:35;;;;;;;1.77;0.40;;;;;;;;;;5054419;28;20044;-81
2023/03/07 14:21:15;;;;;;;4.38;0.80;;;;;;;;;;5052748;28;20042;-81
2023/03/07 14:23:51;;;;;;;3.28;0.80;;;;;;;;;;5038708;28;20494;-81
2023/03/07 14:26:33;;;;;;;1.13;0.43;;;;;;;;;;5054446;28;20410;-81
2023/03/07 14:29:21;;;;;;;4.97;0.70;;;;;;;;;;5040639;28;20049;-81
2023/03/07 14:31:52;;;;;;;3.58;0.70;;;;;;;;;;5035974;28;20442;-81
2023/03/07 14:34:33;;;;;;;3.40;0.88;;;;;;;;;;5038806;28;20056;-81
2023/03/07 14:37:03;;;;;;;1.70;0.55;;;;;;;;;;5040510;28;20072;-81
2023/03/07 14:39:58;;;;;;;4.15;0.90;;;;;;;;;;5037236;28;20042;-81
2023/03/07 14:42:45;;;;;;;1.85;0.65;;;;;;;;;;5057649;28;20060;-81
2023/03/07 14:45:42;;;;;;;4.75;0.70;;;;;;;;;;5039634;28;20037;-81
2023/03/07 14:48:52;;;;;;;1.88;0.60;;;;;;;;;;5040889;28;20044;-81
2023/03/07 14:51:24;;;;;;;3.88;0.52;;;;;;;;;;4970568;28;20112;-81
2023/03/07 14:53:54;;;;;;;2.30;0.70;;;;;;;;;;4970047;28;20049;-81
2023/03/07 14:56:26;;;;;;;1.40;0.52;;;;;;;;;;4986340;28;20050;-81
2023/03/07 14:59:05;;;;;;;5.75;0.40;;;;;;;;;;4971171;28;20038;-81
2023/03/07 15:01:35;;;;;;;5.57;0.90;;;;;;;;;;4971311;28;20073;-81
2023/03/07 15:04:22;;;;;;;2.55;0.50;;;;;;;;;;4963594;28;20035;-81
2023/03/07 15:06:58;;;;;;;3.28;0.70;;;;;;;;;;4964920;28;20046;-81
2023/03/07 15:09:28;;;;;;;3.65;0.40;;;;;;;;;;4962537;28;20057;-81
2023/03/07 15:12:11;;;;;;;5.10;0.70;;;;;;;;;;4973006;28;20046;-81
2023/03/07 15:14:47;;;;;;;5.20;0.77;;;;;;;;;;4987688;28;20058;-81
2023/03/07 15:17:21;;;;;;;6.50;0.93;;;;;;;;;;4964360;28;20527;-81
2023/03/07 15:20:11;;;;;;;4.07;0.55;;;;;;;;;;4955936;28;20048;-81
2023/03/07 15:22:41;;;;;;;10.23;0.82;;;;;;;;;;4979454;28;20722;-81
2023/03/07 15:25:20;;;;;;;7.57;1.20;;;;;;;;;;4967362;28;20046;-81
2023/03/07 15:28:03;;;;;;;3.95;1.60;;;;;;;;;;4987362;28;20127;-81
2023/03/07 15:30:54;;;;;;;5.55;0.90;;;;;;;;;;5055591;28;20033;-81
2023/03/07 15:33:29;;;;;;;2.40;0.70;;;;;;;;;;5037772;28;20111;-81
2023/03/07 15:36:24;;;;;;;3.38;0.60;;;;;;;;;;5024024;28;20138;-81
2023/03/07 15:39:21;;;;;;;4.47;0.65;;;;;;;;;;5039236;28;20053;-81
2023/03/07 15:42:00;;;;;;;2.13;0.55;;;;;;;;;;5036443;28;20123;-81